createdAt,value
2018-09-24T00:31:58.011Z,1.40
2018-09-24T00:49:05.848Z,1.70
2018-09-24T02:02:29.056Z,1.40
2018-09-24T02:04:56.322Z,1.50
2018-09-24T02:09:50.344Z,1.60
2018-09-24T02:39:19.461Z,1.70
2018-09-24T02:41:47.864Z,1.30
2018-09-24T04:10:11.507Z,1.40
2018-09-24T04:33:03.676Z,1.40
2018-09-24T04:35:36.731Z,1.40
2018-09-24T04:38:09.848Z,1.40
2018-09-24T04:40:42.904Z,1.70
2018-09-24T04:43:15.992Z,1.60
2018-09-24T04:45:49.011Z,1.50
2018-09-24T04:48:21.888Z,1.50
2018-09-24T04:50:54.955Z,1.30
2018-09-24T04:53:27.806Z,1.70
2018-09-24T04:56:00.760Z,1.20
2018-09-24T04:58:33.779Z,1.70
2018-09-24T05:01:06.679Z,1.60
2018-09-24T05:03:39.619Z,1.70
2018-09-24T05:06:12.524Z,1.60
2018-09-24T05:08:45.512Z,1.50
2018-09-24T05:11:18.367Z,2.03
2018-09-24T05:13:51.143Z,1.60
2018-09-24T05:16:24.109Z,1.77
2018-09-24T05:18:57.050Z,1.50
2018-09-24T05:21:29.904Z,1.40
2018-09-24T05:24:02.740Z,1.60
2018-09-24T05:26:35.674Z,1.67
2018-09-24T05:29:08.773Z,1.50
2018-09-24T05:31:41.708Z,1.53
2018-09-24T05:34:14.549Z,1.40
2018-09-24T05:36:47.560Z,1.63
2018-09-24T05:39:20.614Z,1.43
2018-09-24T05:41:53.612Z,1.30
2018-09-24T05:44:26.408Z,1.43
2018-09-24T05:46:59.506Z,1.20
2018-09-24T05:49:32.463Z,1.40
2018-09-24T05:52:05.478Z,1.30
2018-09-24T05:54:38.331Z,1.27
2018-09-24T05:57:11.336Z,1.10
2018-09-24T05:59:44.276Z,1.30
2018-09-24T06:02:17.149Z,1.40
2018-09-24T06:04:49.941Z,1.60
2018-09-24T06:07:22.899Z,1.10
2018-09-24T06:09:55.804Z,1.17
2018-09-24T06:12:28.800Z,1.40
2018-09-24T06:15:01.792Z,1.10
2018-09-24T06:17:34.706Z,1.10
2018-09-24T06:20:07.492Z,1.10
2018-09-24T06:22:40.401Z,1.13
2018-09-24T06:25:13.232Z,1.30
2018-09-24T06:27:46.092Z,1.17
2018-09-24T06:30:20.436Z,1.20
2018-09-24T06:32:53.350Z,1.20
2018-09-24T06:35:26.188Z,1.10
2018-09-24T06:37:59.120Z,1.10
2018-09-24T06:40:32.168Z,1.40
2018-09-24T06:43:05.108Z,1.00
2018-09-24T06:45:38.036Z,1.10
2018-09-24T06:48:11.112Z,1.17
2018-09-24T06:50:44.011Z,1.17
2018-09-24T06:53:16.872Z,1.30
2018-09-24T06:55:49.813Z,2.00
2018-09-24T06:58:22.824Z,2.03
2018-09-24T07:00:55.808Z,4.05
2018-09-24T07:03:28.660Z,2.90
2018-09-24T07:06:01.674Z,2.30
2018-09-24T07:08:34.612Z,2.00
2018-09-24T07:11:07.652Z,1.90
2018-09-24T07:13:40.564Z,1.83
2018-09-24T07:16:13.357Z,1.83
2018-09-24T07:18:46.311Z,1.93
2018-09-24T07:21:19.302Z,1.90
2018-09-24T07:23:52.257Z,1.60
2018-09-24T07:26:25.041Z,1.80
2018-09-24T07:28:57.915Z,1.70
2018-09-24T07:31:30.730Z,1.40
2018-09-24T07:34:03.748Z,1.50
2018-09-24T07:36:36.751Z,1.83
2018-09-24T07:39:13.359Z,1.80
2018-09-24T07:41:46.488Z,1.40
2018-09-24T07:44:19.296Z,1.80
2018-09-24T07:46:52.236Z,1.40
2018-09-24T07:49:25.076Z,1.60
2018-09-24T07:51:57.902Z,1.43
2018-09-24T07:54:30.961Z,1.60
2018-09-24T07:57:03.897Z,1.70
2018-09-24T07:59:36.879Z,1.67
2018-09-24T08:02:09.716Z,1.97
2018-09-24T08:04:42.573Z,1.70
2018-09-24T08:07:15.379Z,1.50
2018-09-24T08:09:48.187Z,1.73
2018-09-24T08:12:21.225Z,2.60
2018-09-24T08:14:54.152Z,1.73
2018-09-24T08:17:27.001Z,1.80
2018-09-24T08:19:59.934Z,2.30
2018-09-24T08:22:32.944Z,1.50
2018-09-24T08:25:05.896Z,2.03
2018-09-24T08:27:38.906Z,2.60
2018-09-24T08:30:12.745Z,1.77
2018-09-24T08:32:45.811Z,1.60
2018-09-24T08:35:18.611Z,1.67
2018-09-24T08:37:51.493Z,1.70
2018-09-24T08:40:24.516Z,3.80
2018-09-24T08:42:57.445Z,3.47
2018-09-24T08:45:30.303Z,2.03
2018-09-24T08:48:03.096Z,1.90
2018-09-24T08:50:36.020Z,1.47
2018-09-24T08:53:09.064Z,1.80
2018-09-24T08:55:42.000Z,3.90
2018-09-24T08:58:14.920Z,2.70
2018-09-24T09:00:47.935Z,2.20
2018-09-24T09:03:20.772Z,1.87
2018-09-24T09:05:53.710Z,1.80
2018-09-24T09:08:26.565Z,2.00
2018-09-24T09:10:59.494Z,1.83
2018-09-24T09:13:32.408Z,1.50
2018-09-24T09:16:05.347Z,1.60
2018-09-24T09:18:38.192Z,1.40
2018-09-24T09:21:11.011Z,1.60
2018-09-24T09:23:44.016Z,1.30
2018-09-24T09:26:16.816Z,1.70
2018-09-24T09:28:49.804Z,1.80
2018-09-24T09:31:22.643Z,1.50
2018-09-24T09:33:55.584Z,1.20
2018-09-24T09:36:28.345Z,1.50
2018-09-24T09:39:01.314Z,1.50
2018-09-24T09:41:34.235Z,1.40
2018-09-24T09:44:07.149Z,1.33
2018-09-24T09:46:40.128Z,1.53
2018-09-24T09:49:13.140Z,1.50
2018-09-24T09:51:46.129Z,1.30
2018-09-24T09:54:19.080Z,1.30
2018-09-24T09:56:52.025Z,1.43
2018-09-24T09:59:24.804Z,1.60
2018-09-24T10:01:57.759Z,1.63
2018-09-24T10:04:30.589Z,1.30
2018-09-24T10:07:03.481Z,1.40
2018-09-24T10:09:36.390Z,1.37
2018-09-24T10:12:09.240Z,1.00
2018-09-24T10:14:42.192Z,1.00
2018-09-24T10:17:15.175Z,1.47
2018-09-24T10:19:48.007Z,1.30
2018-09-24T10:22:20.822Z,1.30
2018-09-24T10:24:53.657Z,1.40
2018-09-24T10:27:26.512Z,1.30
2018-09-24T10:29:59.387Z,1.33
2018-09-24T10:32:32.191Z,1.27
2018-09-24T10:35:05.126Z,1.13
2018-09-24T10:37:38.060Z,1.20
2018-09-24T10:40:11.908Z,1.33
2018-09-24T10:42:44.899Z,1.20
2018-09-24T10:45:17.733Z,1.07
2018-09-24T10:47:50.521Z,1.27
2018-09-24T10:50:23.521Z,1.20
2018-09-24T10:52:56.545Z,1.30
2018-09-24T10:55:29.424Z,1.00
2018-09-24T10:58:02.386Z,1.10
2018-09-24T11:00:35.258Z,1.30
2018-09-24T11:03:08.019Z,1.20
2018-09-24T11:05:40.909Z,1.10
2018-09-24T11:08:13.870Z,1.10
2018-09-24T11:10:46.665Z,1.10
2018-09-24T11:13:19.627Z,1.20
2018-09-24T11:15:52.618Z,1.03
2018-09-24T11:18:25.406Z,1.30
2018-09-24T11:20:58.348Z,1.20
2018-09-24T11:23:31.227Z,1.10
2018-09-24T11:26:04.033Z,0.97
2018-09-24T11:28:36.993Z,1.10
2018-09-24T11:31:09.837Z,1.17
2018-09-24T11:33:42.855Z,1.00
2018-09-24T11:36:15.720Z,1.10
2018-09-24T11:38:48.631Z,1.10
2018-09-24T11:41:21.740Z,1.00
2018-09-24T11:43:54.760Z,1.00
2018-09-24T11:46:27.632Z,1.50
2018-09-24T11:49:00.568Z,1.10
2018-09-24T11:51:33.508Z,1.10
2018-09-24T11:54:06.472Z,0.90
2018-09-24T11:56:39.412Z,1.03
2018-09-24T11:59:12.280Z,1.00
2018-09-24T12:01:45.299Z,1.17
2018-09-24T12:04:18.132Z,1.10
2018-09-24T12:06:51.121Z,1.10
2018-09-24T12:09:23.918Z,1.10
2018-09-24T12:11:56.875Z,1.07
2018-09-24T12:14:29.687Z,0.80
2018-09-24T12:17:02.635Z,1.00
2018-09-24T12:19:35.624Z,1.00
2018-09-24T12:22:08.448Z,1.00
2018-09-24T12:24:41.260Z,0.80
2018-09-24T12:27:14.120Z,0.90
2018-09-24T12:29:46.888Z,0.97
2018-09-24T12:32:19.706Z,0.93
2018-09-24T12:34:52.619Z,1.00
2018-09-24T12:37:25.605Z,1.00
2018-09-24T12:39:58.599Z,1.30
2018-09-24T12:42:31.389Z,0.97
2018-09-24T12:45:04.153Z,1.00
2018-09-24T12:47:37.125Z,1.07
2018-09-24T12:50:10.189Z,0.90
2018-09-24T12:52:43.152Z,0.90
2018-09-24T12:55:15.980Z,1.00
2018-09-24T12:57:48.758Z,1.17
2018-09-24T13:00:21.721Z,0.80
2018-09-24T13:02:54.708Z,1.10
2018-09-24T13:05:27.549Z,0.93
2018-09-24T13:08:00.468Z,0.90
2018-09-24T13:10:33.474Z,0.90
2018-09-24T13:13:06.296Z,0.97
2018-09-24T13:15:39.169Z,1.00
2018-09-24T13:18:12.028Z,0.80
2018-09-24T13:20:45.044Z,0.80
2018-09-24T13:23:17.888Z,0.90
2018-09-24T13:25:50.900Z,0.70
2018-09-24T13:28:23.717Z,0.90
2018-09-24T13:30:56.663Z,0.83
2018-09-24T13:33:29.592Z,0.90
2018-09-24T13:36:02.559Z,0.93
2018-09-24T13:38:35.476Z,0.80
2018-09-24T13:41:08.316Z,0.90
2018-09-24T13:43:41.229Z,0.80
2018-09-24T13:46:14.021Z,0.90
2018-09-24T13:48:46.964Z,1.10
2018-09-24T13:51:19.938Z,0.87
2018-09-24T13:53:52.685Z,0.87
2018-09-24T13:56:25.484Z,0.90
2018-09-24T13:58:58.417Z,0.80
2018-09-24T14:01:31.236Z,0.90
2018-09-24T14:04:04.190Z,1.00
2018-09-24T14:06:37.143Z,0.90
2018-09-24T14:09:12.125Z,0.80
2018-09-24T14:11:45.154Z,0.90
2018-09-24T14:14:18.008Z,0.90
2018-09-24T14:16:50.980Z,0.70
2018-09-24T14:19:23.873Z,0.97
2018-09-24T14:21:56.843Z,0.93
2018-09-24T14:24:29.900Z,1.07
2018-09-24T14:27:02.836Z,0.80
2018-09-24T14:29:35.780Z,0.90
2018-09-24T14:32:08.648Z,0.70
2018-09-24T14:34:41.608Z,0.90
2018-09-24T14:37:14.629Z,1.00
2018-09-24T14:39:47.600Z,1.10
2018-09-24T14:42:20.393Z,0.90
2018-09-24T14:44:53.330Z,1.00
2018-09-24T14:47:26.691Z,0.70
2018-09-24T14:49:59.587Z,0.70
2018-09-24T14:52:32.597Z,0.77
2018-09-24T14:55:05.509Z,0.80
2018-09-24T14:57:38.479Z,0.80
2018-09-24T15:00:11.569Z,0.90
2018-09-24T15:02:44.512Z,1.00
2018-09-24T15:05:17.376Z,0.80
2018-09-24T15:07:50.299Z,0.80
2018-09-24T15:10:23.152Z,0.83
2018-09-24T15:12:56.093Z,0.90
2018-09-24T15:15:28.989Z,0.80
2018-09-24T15:18:01.944Z,0.90
2018-09-24T15:20:34.893Z,0.97
2018-09-24T15:23:07.806Z,0.90
2018-09-24T15:25:40.736Z,0.87
2018-09-24T15:28:13.539Z,0.87
2018-09-24T15:30:46.414Z,0.83
2018-09-24T15:33:19.235Z,0.70
2018-09-24T15:35:52.228Z,1.00
2018-09-24T15:38:25.172Z,0.67
2018-09-24T15:40:58.224Z,1.00
2018-09-24T15:43:31.096Z,0.90
2018-09-24T15:46:04.081Z,0.90
2018-09-24T15:48:37.078Z,1.13
2018-09-24T15:51:09.943Z,1.10
2018-09-24T15:53:42.961Z,1.10
2018-09-24T15:56:15.810Z,1.00
2018-09-24T15:58:48.796Z,1.30
2018-09-24T16:01:21.636Z,1.23
2018-09-24T16:03:54.628Z,1.60
2018-09-24T16:06:27.441Z,1.80
2018-09-24T16:09:00.243Z,1.63
2018-09-24T16:11:33.205Z,1.43
2018-09-24T16:14:06.109Z,1.30
2018-09-24T16:16:39.068Z,1.50
2018-09-24T16:19:11.941Z,1.27
2018-09-24T16:21:44.957Z,1.70
2018-09-24T16:24:17.825Z,1.23
2018-09-24T16:26:50.708Z,1.43
2018-09-24T16:29:23.581Z,1.13
2018-09-24T16:31:56.568Z,1.20
2018-09-24T16:34:29.386Z,1.60
2018-09-24T16:37:02.307Z,1.70
2018-09-24T16:39:35.164Z,1.60
2018-09-24T16:42:08.009Z,1.30
2018-09-24T16:44:40.965Z,1.33
2018-09-24T16:47:13.965Z,1.43
2018-09-24T16:49:46.969Z,1.33
2018-09-24T16:52:19.766Z,1.57
2018-09-24T16:54:52.706Z,1.30
2018-09-24T16:57:25.730Z,1.20
2018-09-24T16:59:58.647Z,1.50
2018-09-24T17:02:31.679Z,1.27
2018-09-24T17:05:04.633Z,1.50
2018-09-24T17:07:37.632Z,1.20
2018-09-24T17:10:11.068Z,1.40
2018-09-24T17:12:43.990Z,1.50
2018-09-24T17:15:16.809Z,1.40
2018-09-24T17:17:49.776Z,1.33
2018-09-24T17:20:22.776Z,1.63
2018-09-24T17:22:55.729Z,1.70
2018-09-24T17:25:28.492Z,1.60
2018-09-24T17:28:01.398Z,1.30
2018-09-24T17:30:34.240Z,1.50
2018-09-24T17:33:07.068Z,1.40
2018-09-24T17:35:39.913Z,1.50
2018-09-24T17:38:12.898Z,1.30
2018-09-24T17:40:45.688Z,1.77
2018-09-24T17:43:18.575Z,1.20
2018-09-24T17:45:51.406Z,1.40
2018-09-24T17:48:24.277Z,1.43
2018-09-24T17:50:57.261Z,1.57
2018-09-24T17:53:30.061Z,1.50
2018-09-24T17:56:03.048Z,1.60
2018-09-24T17:58:36.037Z,1.47
2018-09-24T18:01:08.857Z,1.60
2018-09-24T18:03:41.820Z,1.40
2018-09-24T18:06:14.704Z,1.47
2018-09-24T18:08:47.478Z,1.50
2018-09-24T18:11:20.516Z,1.37
2018-09-24T18:13:53.452Z,1.30
2018-09-24T18:16:26.315Z,1.50
2018-09-24T18:18:59.133Z,1.50
2018-09-24T18:21:32.076Z,1.30
2018-09-24T18:24:04.925Z,1.27
2018-09-24T18:26:37.908Z,1.50
2018-09-24T18:29:11.036Z,1.20
2018-09-24T18:31:45.061Z,1.53
2018-09-24T18:34:19.192Z,1.50
2018-09-24T18:36:52.849Z,1.23
2018-09-24T18:39:25.980Z,1.30
2018-09-24T18:41:59.227Z,1.20
2018-09-24T18:44:32.358Z,1.40
2018-09-24T18:47:05.856Z,1.33
2018-09-24T18:49:39.095Z,1.47
2018-09-24T18:52:12.089Z,1.20
2018-09-24T18:54:45.496Z,1.30
2018-09-24T18:57:18.669Z,1.30
2018-09-24T18:59:51.633Z,1.10
2018-09-24T19:02:24.988Z,1.20
2018-09-24T19:04:57.956Z,1.70
2018-09-24T19:07:30.773Z,1.30
2018-09-24T19:10:03.717Z,1.03
2018-09-24T19:12:36.680Z,1.20
2018-09-24T19:15:09.748Z,1.20
2018-09-24T19:17:42.660Z,1.20
2018-09-24T19:20:15.484Z,1.40
2018-09-24T19:22:48.438Z,1.50
2018-09-24T19:25:21.313Z,1.40
2018-09-24T19:27:54.229Z,1.50
2018-09-24T19:30:28.621Z,1.50
2018-09-24T19:33:01.453Z,1.20
2018-09-24T19:35:34.440Z,1.30
2018-09-24T19:38:07.416Z,1.17
2018-09-24T19:40:40.173Z,1.10
2018-09-24T19:43:13.125Z,1.30
2018-09-24T19:45:46.090Z,1.43
2018-09-24T19:48:25.778Z,1.10
2018-09-24T19:50:58.736Z,1.40
2018-09-24T19:53:31.492Z,1.30
2018-09-24T19:56:04.556Z,1.13
2018-09-24T19:58:37.352Z,1.20
2018-09-24T20:01:10.358Z,1.20
2018-09-24T20:03:43.328Z,1.17
2018-09-24T20:06:16.100Z,0.90
2018-09-24T20:08:49.041Z,1.20
2018-09-24T20:11:21.899Z,1.20
2018-09-24T20:13:54.820Z,1.20
2018-09-24T20:16:27.674Z,1.13
2018-09-24T20:19:00.447Z,1.10
2018-09-24T20:21:33.369Z,1.47
2018-09-24T20:24:06.308Z,1.17
2018-09-24T20:26:39.220Z,1.50
2018-09-24T20:29:12.060Z,1.20
2018-09-24T20:31:44.977Z,1.30
2018-09-24T20:34:17.896Z,1.23
2018-09-24T20:36:50.852Z,1.60
2018-09-24T20:39:23.648Z,1.50
2018-09-24T20:41:56.537Z,1.40
2018-09-24T20:44:29.368Z,1.30
2018-09-24T20:47:02.149Z,1.60
2018-09-24T20:49:34.960Z,1.50
2018-09-24T20:52:07.753Z,1.60
2018-09-24T20:54:40.745Z,1.50
2018-09-24T20:57:13.777Z,1.50
2018-09-24T20:59:46.719Z,1.67
2018-09-24T21:02:19.555Z,1.87
2018-09-24T21:04:52.328Z,1.53
2018-09-24T21:07:25.292Z,1.80
2018-09-24T21:09:58.193Z,1.63
2018-09-24T21:12:31.021Z,1.40
2018-09-24T21:15:03.972Z,1.70
2018-09-24T21:17:36.872Z,1.77
2018-09-24T21:20:09.763Z,1.93
2018-09-24T21:22:42.558Z,1.70
2018-09-24T21:25:15.403Z,1.93
2018-09-24T21:27:48.193Z,1.90
2018-09-24T21:30:20.956Z,1.87
2018-09-24T21:32:53.925Z,1.80
2018-09-24T21:35:26.808Z,1.77
2018-09-24T21:37:59.812Z,1.80
2018-09-24T21:40:32.811Z,1.67
2018-09-24T21:43:05.836Z,1.67
2018-09-24T21:45:38.596Z,2.03
2018-09-24T21:48:11.473Z,1.60
2018-09-24T21:50:44.273Z,1.80
2018-09-24T21:53:17.192Z,1.90
2018-09-24T21:55:50.160Z,2.10
2018-09-24T21:58:22.975Z,1.80
2018-09-24T22:00:55.960Z,2.03
2018-09-24T22:03:28.893Z,2.00
2018-09-24T22:06:01.816Z,2.17
2018-09-24T22:08:34.809Z,1.80
2018-09-24T22:11:07.795Z,1.90
2018-09-24T22:13:40.715Z,2.03
2018-09-24T22:16:13.784Z,1.90
2018-09-24T22:18:46.760Z,2.20
2018-09-24T22:21:19.620Z,2.03
2018-09-24T22:23:52.572Z,1.90
2018-09-24T22:26:25.387Z,1.80
2018-09-24T22:28:58.284Z,2.00
2018-09-24T22:31:31.320Z,1.80
2018-09-24T22:34:04.265Z,1.97
2018-09-24T22:36:37.175Z,2.13
2018-09-24T22:39:12.845Z,2.00
2018-09-24T22:41:46.356Z,2.13
2018-09-24T22:44:19.175Z,2.60
2018-09-24T22:46:52.072Z,2.30
2018-09-24T22:49:24.938Z,2.53
2018-09-24T22:51:57.724Z,2.70
2018-09-24T22:54:30.764Z,2.60
2018-09-24T22:57:03.748Z,2.60
2018-09-24T22:59:36.683Z,2.50
2018-09-24T23:02:09.477Z,2.50
2018-09-24T23:04:42.388Z,2.80
2018-09-24T23:07:15.257Z,2.80
2018-09-24T23:09:48.064Z,2.53
2018-09-24T23:12:20.864Z,2.80
2018-09-24T23:14:53.884Z,3.13
2018-09-24T23:17:26.916Z,2.73
2018-09-24T23:19:59.916Z,2.50
2018-09-24T23:22:32.772Z,2.70
2018-09-24T23:25:05.740Z,2.60
2018-09-24T23:27:38.732Z,2.70
2018-09-24T23:30:13.283Z,2.60
2018-09-24T23:32:46.216Z,2.83
2018-09-24T23:35:19.229Z,3.00
2018-09-24T23:37:52.188Z,2.87
2018-09-24T23:40:25.084Z,2.60
2018-09-24T23:42:58.009Z,3.00
2018-09-24T23:45:30.936Z,3.13
2018-09-24T23:48:03.876Z,2.87
2018-09-24T23:50:36.788Z,2.83
2018-09-24T23:53:09.589Z,2.87
2018-09-24T23:55:42.551Z,3.07
2018-09-24T23:58:15.367Z,2.80
